sensor_id;sensor_type;location;lat;lon;timestamp;pressure;altitude;pressure_sealevel;temperature;humidity
31681;BME280;18281;51.364;9.566;2023-08-12T00:00:20;100241.78;;;16.51;100.00
31681;BME280;18281;51.364;9.566;2023-08-12T00:02:46;100237.69;;;16.35;100.00
31681;BME280;18281;51.364;9.566;2023-08-12T00:05:11;100238.13;;;16.29;100.00
31681;BME280;18281;51.364;9.566;2023-08-12T00:07:37;100233.34;;;16.34;100.00
31681;BME280;18281;51.364;9.566;2023-08-12T00:10:03;100230.56;;;16.24;100.00
31681;BME280;18281;51.364;9.566;2023-08-12T00:12:29;100221.63;;;16.25;100.00
31681;BME280;18281;51.364;9.566;2023-08-12T00:14:55;100230.63;;;16.23;100.00
31681;BME280;18281;51.364;9.566;2023-08-12T00:17:20;100228.59;;;16.15;100.00
31681;BME280;18281;51.364;9.566;2023-08-12T00:19:45;100235.78;;;16.02;100.00
31681;BME280;18281;51.364;9.566;2023-08-12T00:22:10;100227.75;;;16.15;100.00
31681;BME280;18281;51.364;9.566;2023-08-12T00:24:36;100228.69;;;16.14;100.00
31681;BME280;18281;51.364;9.566;2023-08-12T00:27:01;100230.97;;;16.07;100.00
31681;BME280;18281;51.364;9.566;2023-08-12T00:29:26;100223.50;;;16.12;100.00
31681;BME280;18281;51.364;9.566;2023-08-12T00:31:51;100229.63;;;16.01;100.00
31681;BME280;18281;51.364;9.566;2023-08-12T00:34:17;100217.94;;;15.92;100.00
31681;BME280;18281;51.364;9.566;2023-08-12T00:36:42;100213.72;;;15.90;100.00
31681;BME280;18281;51.364;9.566;2023-08-12T00:39:07;100206.47;;;15.92;100.00
31681;BME280;18281;51.364;9.566;2023-08-12T00:41:33;100205.16;;;15.98;100.00
31681;BME280;18281;51.364;9.566;2023-08-12T00:43:58;100205.66;;;16.03;100.00
31681;BME280;18281;51.364;9.566;2023-08-12T00:46:23;100201.81;;;16.07;100.00
31681;BME280;18281;51.364;9.566;2023-08-12T00:48:49;100202.19;;;16.14;100.00
31681;BME280;18281;51.364;9.566;2023-08-12T00:51:15;100201.81;;;15.96;100.00
31681;BME280;18281;51.364;9.566;2023-08-12T00:53:40;100203.63;;;15.95;100.00
31681;BME280;18281;51.364;9.566;2023-08-12T00:56:06;100190.03;;;16.00;100.00
31681;BME280;18281;51.364;9.566;2023-08-12T00:58:31;100194.41;;;15.76;100.00
31681;BME280;18281;51.364;9.566;2023-08-12T01:00:56;100190.56;;;15.81;100.00
31681;BME280;18281;51.364;9.566;2023-08-12T01:03:22;100193.38;;;15.90;100.00
31681;BME280;18281;51.364;9.566;2023-08-12T01:05:47;100192.66;;;16.00;100.00
31681;BME280;18281;51.364;9.566;2023-08-12T01:08:13;100197.47;;;15.95;100.00
31681;BME280;18281;51.364;9.566;2023-08-12T01:10:39;100192.16;;;15.83;100.00
31681;BME280;18281;51.364;9.566;2023-08-12T01:15:53;100185.41;;;15.79;100.00
31681;BME280;18281;51.364;9.566;2023-08-12T01:18:20;100186.34;;;15.78;100.00
31681;BME280;18281;51.364;9.566;2023-08-12T01:20:47;100178.16;;;15.70;100.00
31681;BME280;18281;51.364;9.566;2023-08-12T01:23:13;100178.31;;;15.67;100.00
31681;BME280;18281;51.364;9.566;2023-08-12T01:25:38;100168.66;;;15.79;100.00
31681;BME280;18281;51.364;9.566;2023-08-12T01:28:04;100168.09;;;15.62;100.00
31681;BME280;18281;51.364;9.566;2023-08-12T01:30:29;100167.03;;;15.65;100.00
31681;BME280;18281;51.364;9.566;2023-08-12T01:33:01;100154.72;;;15.52;100.00
31681;BME280;18281;51.364;9.566;2023-08-12T01:37:57;100151.59;;;15.58;100.00
31681;BME280;18281;51.364;9.566;2023-08-12T01:40:24;100146.03;;;15.50;100.00
31681;BME280;18281;51.364;9.566;2023-08-12T01:42:50;100152.28;;;15.49;100.00
31681;BME280;18281;51.364;9.566;2023-08-12T01:45:17;100150.13;;;15.54;100.00
31681;BME280;18281;51.364;9.566;2023-08-12T01:47:43;100155.69;;;15.63;100.00
31681;BME280;18281;51.364;9.566;2023-08-12T01:50:08;100154.84;;;15.62;100.00
31681;BME280;18281;51.364;9.566;2023-08-12T01:52:34;100146.41;;;15.57;100.00
31681;BME280;18281;51.364;9.566;2023-08-12T01:55:00;100148.56;;;15.52;100.00
31681;BME280;18281;51.364;9.566;2023-08-12T01:57:25;100144.97;;;15.53;100.00
31681;BME280;18281;51.364;9.566;2023-08-12T01:59:51;100137.81;;;15.42;100.00
31681;BME280;18281;51.364;9.566;2023-08-12T02:02:16;100132.41;;;15.43;100.00
31681;BME280;18281;51.364;9.566;2023-08-12T02:04:41;100139.16;;;15.48;100.00
31681;BME280;18281;51.364;9.566;2023-08-12T02:07:08;100146.81;;;15.39;100.00
31681;BME280;18281;51.364;9.566;2023-08-12T02:09:33;100145.25;;;15.37;100.00
31681;BME280;18281;51.364;9.566;2023-08-12T02:11:59;100138.44;;;15.46;100.00
31681;BME280;18281;51.364;9.566;2023-08-12T02:14:24;100133.25;;;15.44;100.00
31681;BME280;18281;51.364;9.566;2023-08-12T02:16:49;100137.94;;;15.40;100.00
31681;BME280;18281;51.364;9.566;2023-08-12T02:19:14;100132.03;;;15.37;100.00
31681;BME280;18281;51.364;9.566;2023-08-12T02:21:40;100133.84;;;15.36;100.00
31681;BME280;18281;51.364;9.566;2023-08-12T02:24:06;100123.41;;;15.46;100.00
31681;BME280;18281;51.364;9.566;2023-08-12T02:26:31;100136.63;;;15.46;100.00
31681;BME280;18281;51.364;9.566;2023-08-12T02:28:56;100135.72;;;15.34;100.00
31681;BME280;18281;51.364;9.566;2023-08-12T02:31:21;100127.56;;;15.37;100.00
31681;BME280;18281;51.364;9.566;2023-08-12T02:33:47;100132.84;;;15.37;100.00
31681;BME280;18281;51.364;9.566;2023-08-12T02:36:12;100121.56;;;15.35;100.00
31681;BME280;18281;51.364;9.566;2023-08-12T02:38:37;100125.63;;;15.28;100.00
31681;BME280;18281;51.364;9.566;2023-08-12T02:41:02;100120.66;;;15.23;100.00
31681;BME280;18281;51.364;9.566;2023-08-12T02:43:28;100130.53;;;15.21;100.00
31681;BME280;18281;51.364;9.566;2023-08-12T02:45:53;100126.06;;;15.22;100.00
31681;BME280;18281;51.364;9.566;2023-08-12T02:48:18;100131.34;;;15.22;100.00
31681;BME280;18281;51.364;9.566;2023-08-12T02:50:43;100149.72;;;15.36;100.00
31681;BME280;18281;51.364;9.566;2023-08-12T02:53:09;100150.31;;;15.40;100.00
31681;BME280;18281;51.364;9.566;2023-08-12T02:55:34;100149.47;;;15.39;100.00
31681;BME280;18281;51.364;9.566;2023-08-12T02:58:00;100162.41;;;15.31;100.00
31681;BME280;18281;51.364;9.566;2023-08-12T03:00:25;100164.28;;;15.42;100.00
31681;BME280;18281;51.364;9.566;2023-08-12T03:02:50;100161.41;;;15.45;100.00
31681;BME280;18281;51.364;9.566;2023-08-12T03:05:16;100157.66;;;15.36;100.00
31681;BME280;18281;51.364;9.566;2023-08-12T03:07:41;100151.16;;;15.16;100.00
31681;BME280;18281;51.364;9.566;2023-08-12T03:10:07;100149.34;;;15.17;100.00
31681;BME280;18281;51.364;9.566;2023-08-12T03:12:32;100152.00;;;15.17;100.00
31681;BME280;18281;51.364;9.566;2023-08-12T03:14:57;100153.81;;;15.16;100.00
31681;BME280;18281;51.364;9.566;2023-08-12T03:17:22;100146.66;;;15.30;100.00
31681;BME280;18281;51.364;9.566;2023-08-12T03:19:48;100159.63;;;15.21;100.00
31681;BME280;18281;51.364;9.566;2023-08-12T03:22:14;100155.28;;;15.20;100.00
31681;BME280;18281;51.364;9.566;2023-08-12T03:24:39;100149.31;;;15.30;100.00
31681;BME280;18281;51.364;9.566;2023-08-12T03:27:05;100163.81;;;15.24;100.00
31681;BME280;18281;51.364;9.566;2023-08-12T03:29:31;100164.72;;;15.36;100.00
31681;BME280;18281;51.364;9.566;2023-08-12T03:31:56;100171.94;;;15.34;100.00
31681;BME280;18281;51.364;9.566;2023-08-12T03:34:21;100165.50;;;15.25;100.00
31681;BME280;18281;51.364;9.566;2023-08-12T03:36:47;100165.69;;;15.35;100.00
31681;BME280;18281;51.364;9.566;2023-08-12T03:39:13;100150.53;;;15.37;100.00
31681;BME280;18281;51.364;9.566;2023-08-12T03:41:38;100159.63;;;15.21;100.00
31681;BME280;18281;51.364;9.566;2023-08-12T03:44:04;100159.69;;;15.20;100.00
31681;BME280;18281;51.364;9.566;2023-08-12T03:46:29;100163.09;;;15.22;100.00
31681;BME280;18281;51.364;9.566;2023-08-12T03:48:54;100163.53;;;15.16;100.00
31681;BME280;18281;51.364;9.566;2023-08-12T03:51:20;100170.69;;;15.26;100.00
31681;BME280;18281;51.364;9.566;2023-08-12T03:53:45;100173.31;;;15.26;100.00
31681;BME280;18281;51.364;9.566;2023-08-12T03:56:10;100182.56;;;15.21;100.00
31681;BME280;18281;51.364;9.566;2023-08-12T03:58:39;100177.91;;;15.24;100.00
31681;BME280;18281;51.364;9.566;2023-08-12T04:01:05;100174.34;;;15.37;100.00
31681;BME280;18281;51.364;9.566;2023-08-12T04:03:30;100175.97;;;15.26;100.00
31681;BME280;18281;51.364;9.566;2023-08-12T04:05:56;100181.06;;;15.30;100.00
31681;BME280;18281;51.364;9.566;2023-08-12T04:08:22;100181.50;;;15.23;100.00
31681;BME280;18281;51.364;9.566;2023-08-12T04:10:47;100184.09;;;15.12;100.00
31681;BME280;18281;51.364;9.566;2023-08-12T04:13:13;100186.72;;;15.12;100.00
31681;BME280;18281;51.364;9.566;2023-08-12T04:15:38;100192.00;;;15.12;100.00
31681;BME280;18281;51.364;9.566;2023-08-12T04:18:03;100199.72;;;15.15;100.00
31681;BME280;18281;51.364;9.566;2023-08-12T04:20:29;100198.03;;;15.14;100.00
31681;BME280;18281;51.364;9.566;2023-08-12T04:22:54;100190.19;;;15.13;100.00
31681;BME280;18281;51.364;9.566;2023-08-12T04:25:19;100182.31;;;15.24;100.00
31681;BME280;18281;51.364;9.566;2023-08-12T04:27:45;100180.31;;;15.27;100.00
31681;BME280;18281;51.364;9.566;2023-08-12T04:30:12;100179.78;;;15.22;100.00
31681;BME280;18281;51.364;9.566;2023-08-12T04:32:38;100172.44;;;15.15;100.00
31681;BME280;18281;51.364;9.566;2023-08-12T04:35:04;100164.59;;;15.13;100.00
31681;BME280;18281;51.364;9.566;2023-08-12T04:37:29;100159.69;;;15.20;100.00
31681;BME280;18281;51.364;9.566;2023-08-12T04:39:57;100156.22;;;15.19;100.00
31681;BME280;18281;51.364;9.566;2023-08-12T04:42:22;100153.19;;;15.13;100.00
31681;BME280;18281;51.364;9.566;2023-08-12T04:44:47;100150.78;;;15.09;100.00
31681;BME280;18281;51.364;9.566;2023-08-12T04:47:12;100142.94;;;15.08;100.00
31681;BME280;18281;51.364;9.566;2023-08-12T04:49:38;100140.06;;;15.11;100.00
31681;BME280;18281;51.364;9.566;2023-08-12T04:52:04;100139.28;;;15.22;100.00
31681;BME280;18281;51.364;9.566;2023-08-12T04:54:29;100142.47;;;15.14;100.00
31681;BME280;18281;51.364;9.566;2023-08-12T04:56:54;100138.91;;;15.15;100.00
31681;BME280;18281;51.364;9.566;2023-08-12T04:59:21;100134.50;;;15.27;100.00
31681;BME280;18281;51.364;9.566;2023-08-12T05:01:46;100138.09;;;15.26;100.00
31681;BME280;18281;51.364;9.566;2023-08-12T05:04:12;100131.25;;;15.23;100.00
31681;BME280;18281;51.364;9.566;2023-08-12T05:06:37;100118.97;;;15.22;100.00
31681;BME280;18281;51.364;9.566;2023-08-12T05:09:02;100121.22;;;15.16;100.00
31681;BME280;18281;51.364;9.566;2023-08-12T05:11:28;100120.50;;;15.14;100.00
31681;BME280;18281;51.364;9.566;2023-08-12T05:13:54;100126.63;;;15.14;100.00
31681;BME280;18281;51.364;9.566;2023-08-12T05:16:19;100120.66;;;15.23;100.00
31681;BME280;18281;51.364;9.566;2023-08-12T05:18:44;100120.41;;;15.26;100.00
31681;BME280;18281;51.364;9.566;2023-08-12T05:21:09;100126.50;;;15.16;100.00
31681;BME280;18281;51.364;9.566;2023-08-12T05:23:34;100131.97;;;15.25;100.00
31681;BME280;18281;51.364;9.566;2023-08-12T05:26:00;100143.44;;;15.37;100.00
31681;BME280;18281;51.364;9.566;2023-08-12T05:28:25;100143.03;;;15.31;100.00
31681;BME280;18281;51.364;9.566;2023-08-12T05:30:50;100143.16;;;15.29;100.00
31681;BME280;18281;51.364;9.566;2023-08-12T05:33:15;100147.19;;;15.35;100.00
31681;BME280;18281;51.364;9.566;2023-08-12T05:35:41;100150.53;;;15.37;100.00
31681;BME280;18281;51.364;9.566;2023-08-12T05:38:06;100153.19;;;15.37;100.00
31681;BME280;18281;51.364;9.566;2023-08-12T05:40:31;100157.66;;;15.36;100.00
31681;BME280;18281;51.364;9.566;2023-08-12T05:42:56;100144.97;;;15.53;100.00
31681;BME280;18281;51.364;9.566;2023-08-12T05:45:22;100147.09;;;15.48;100.00
31681;BME280;18281;51.364;9.566;2023-08-12T05:47:47;100137.38;;;15.48;100.00
31681;BME280;18281;51.364;9.566;2023-08-12T05:50:12;100140.22;;;15.45;100.00
31681;BME280;18281;51.364;9.566;2023-08-12T05:52:37;100128.00;;;15.55;100.00
31681;BME280;18281;51.364;9.566;2023-08-12T05:55:03;100134.72;;;15.48;100.00
31681;BME280;18281;51.364;9.566;2023-08-12T05:57:28;100132.09;;;15.48;100.00
31681;BME280;18281;51.364;9.566;2023-08-12T05:59:54;100135.69;;;15.47;100.00
31681;BME280;18281;51.364;9.566;2023-08-12T06:02:19;100137.28;;;15.61;100.00
31681;BME280;18281;51.364;9.566;2023-08-12T06:04:45;100140.09;;;15.71;100.00
31681;BME280;18281;51.364;9.566;2023-08-12T06:07:10;100135.50;;;15.62;100.00
31681;BME280;18281;51.364;9.566;2023-08-12T06:09:35;100132.91;;;15.73;100.00
31681;BME280;18281;51.364;9.566;2023-08-12T06:12:00;100133.28;;;15.80;100.00
31681;BME280;18281;51.364;9.566;2023-08-12T06:14:26;100142.97;;;15.68;100.00
31681;BME280;18281;51.364;9.566;2023-08-12T06:16:51;100132.84;;;15.62;100.00
31681;BME280;18281;51.364;9.566;2023-08-12T06:19:16;100130.09;;;15.63;100.00
31681;BME280;18281;51.364;9.566;2023-08-12T06:21:41;100125.81;;;15.73;100.00
31681;BME280;18281;51.364;9.566;2023-08-12T06:24:06;100130.41;;;15.83;100.00
31681;BME280;18281;51.364;9.566;2023-08-12T06:26:32;100124.59;;;15.77;100.00
31681;BME280;18281;51.364;9.566;2023-08-12T06:28:57;100127.63;;;15.73;100.00
31681;BME280;18281;51.364;9.566;2023-08-12T06:31:22;100121.38;;;15.85;100.00
31681;BME280;18281;51.364;9.566;2023-08-12T06:33:48;100120.81;;;15.93;100.00
31681;BME280;18281;51.364;9.566;2023-08-12T06:36:13;100106.56;;;15.83;100.00
31681;BME280;18281;51.364;9.566;2023-08-12T06:38:38;100102.34;;;15.80;100.00
31681;BME280;18281;51.364;9.566;2023-08-12T06:41:03;100102.34;;;15.80;100.00
31681;BME280;18281;51.364;9.566;2023-08-12T06:43:29;100097.81;;;15.82;100.00
31681;BME280;18281;51.364;9.566;2023-08-12T06:45:54;100090.59;;;15.96;100.00
31681;BME280;18281;51.364;9.566;2023-08-12T06:48:19;100087.22;;;15.93;100.00
31681;BME280;18281;51.364;9.566;2023-08-12T06:50:44;100081.66;;;15.85;100.00
31681;BME280;18281;51.364;9.566;2023-08-12T06:53:10;100071.69;;;15.89;100.00
31681;BME280;18281;51.364;9.566;2023-08-12T06:55:35;100058.78;;;15.84;100.00
31681;BME280;18281;51.364;9.566;2023-08-12T06:58:01;100072.78;;;15.86;100.00
31681;BME280;18281;51.364;9.566;2023-08-12T07:00:26;100069.41;;;15.96;100.00
31681;BME280;18281;51.364;9.566;2023-08-12T07:02:51;100069.41;;;16.07;100.00
31681;BME280;18281;51.364;9.566;2023-08-12T07:05:16;100068.22;;;16.22;100.00
31681;BME280;18281;51.364;9.566;2023-08-12T07:07:42;100067.25;;;16.35;100.00
31681;BME280;18281;51.364;9.566;2023-08-12T07:10:09;100060.75;;;16.39;100.00
31681;BME280;18281;51.364;9.566;2023-08-12T07:12:34;100052.44;;;16.55;100.00
31681;BME280;18281;51.364;9.566;2023-08-12T07:15:00;100041.53;;;16.81;100.00
31681;BME280;18281;51.364;9.566;2023-08-12T07:17:25;100044.75;;;16.96;100.00
31681;BME280;18281;51.364;9.566;2023-08-12T07:19:50;100048.72;;;17.01;100.00
31681;BME280;18281;51.364;9.566;2023-08-12T07:22:15;100048.19;;;17.07;100.00
31681;BME280;18281;51.364;9.566;2023-08-12T07:24:46;100048.50;;;17.14;100.00
31681;BME280;18281;51.364;9.566;2023-08-12T07:27:11;100050.94;;;17.17;100.00
31681;BME280;18281;51.364;9.566;2023-08-12T07:29:36;100052.09;;;17.24;100.00
31681;BME280;18281;51.364;9.566;2023-08-12T07:32:02;100055.47;;;17.26;100.00
31681;BME280;18281;51.364;9.566;2023-08-12T07:34:27;100056.19;;;17.29;100.00
31681;BME280;18281;51.364;9.566;2023-08-12T07:36:52;100052.44;;;17.31;100.00
31681;BME280;18281;51.364;9.566;2023-08-12T07:39:17;100064.59;;;17.34;100.00
31681;BME280;18281;51.364;9.566;2023-08-12T07:41:43;100068.00;;;17.36;100.00
31681;BME280;18281;51.364;9.566;2023-08-12T07:44:08;100066.91;;;17.38;100.00
31681;BME280;18281;51.364;9.566;2023-08-12T07:46:33;100060.13;;;17.46;100.00
31681;BME280;18281;51.364;9.566;2023-08-12T07:49:00;100069.09;;;17.54;100.00
31681;BME280;18281;51.364;9.566;2023-08-12T07:51:25;100057.28;;;17.58;100.00
31681;BME280;18281;51.364;9.566;2023-08-12T07:53:50;100049.31;;;17.58;100.00
31681;BME280;18281;51.364;9.566;2023-08-12T07:56:15;100057.47;;;17.67;100.00
31681;BME280;18281;51.364;9.566;2023-08-12T07:58:40;100052.03;;;17.68;100.00
31681;BME280;18281;51.364;9.566;2023-08-12T08:01:06;100054.25;;;17.73;100.00
31681;BME280;18281;51.364;9.566;2023-08-12T08:03:33;100058.22;;;17.79;100.00
31681;BME280;18281;51.364;9.566;2023-08-12T08:05:58;100054.19;;;17.84;100.00
31681;BME280;18281;51.364;9.566;2023-08-12T08:08:24;100058.28;;;17.88;100.00
31681;BME280;18281;51.364;9.566;2023-08-12T08:10:49;100051.59;;;17.94;100.00
31681;BME280;18281;51.364;9.566;2023-08-12T08:13:14;100052.56;;;17.93;100.00
31681;BME280;18281;51.364;9.566;2023-08-12T08:15:39;100048.56;;;17.99;100.00
31681;BME280;18281;51.364;9.566;2023-08-12T08:18:05;100059.72;;;18.02;100.00
31681;BME280;18281;51.364;9.566;2023-08-12T08:20:30;100059.13;;;18.20;100.00
31681;BME280;18281;51.364;9.566;2023-08-12T08:22:55;100058.78;;;18.34;100.00
31681;BME280;18281;51.364;9.566;2023-08-12T08:25:21;100066.22;;;18.40;100.00
31681;BME280;18281;51.364;9.566;2023-08-12T08:27:46;100072.28;;;18.52;100.00
31681;BME280;18281;51.364;9.566;2023-08-12T08:30:12;100063.88;;;18.67;100.00
31681;BME280;18281;51.364;9.566;2023-08-12T08:32:37;100060.41;;;18.76;100.00
31681;BME280;18281;51.364;9.566;2023-08-12T08:35:02;100057.22;;;18.82;100.00
31681;BME280;18281;51.364;9.566;2023-08-12T08:37:27;100059.16;;;18.80;100.00
31681;BME280;18281;51.364;9.566;2023-08-12T08:39:53;100058.03;;;18.83;100.00
31681;BME280;18281;51.364;9.566;2023-08-12T08:42:18;100058.59;;;18.86;100.00
31681;BME280;18281;51.364;9.566;2023-08-12T08:44:45;100054.31;;;19.05;100.00
31681;BME280;18281;51.364;9.566;2023-08-12T08:47:10;100048.84;;;19.16;100.00
31681;BME280;18281;51.364;9.566;2023-08-12T08:49:37;100040.03;;;19.35;100.00
31681;BME280;18281;51.364;9.566;2023-08-12T08:52:03;100031.41;;;19.51;100.00
31681;BME280;18281;51.364;9.566;2023-08-12T08:54:28;100029.47;;;19.53;100.00
31681;BME280;18281;51.364;9.566;2023-08-12T08:56:54;100013.75;;;19.70;100.00
31681;BME280;18281;51.364;9.566;2023-08-12T08:59:19;100011.19;;;19.78;100.00
31681;BME280;18281;51.364;9.566;2023-08-12T09:01:46;100008.88;;;20.03;100.00
31681;BME280;18281;51.364;9.566;2023-08-12T09:04:14;100002.03;;;20.18;100.00
31681;BME280;18281;51.364;9.566;2023-08-12T09:06:40;100005.66;;;20.27;100.00
31681;BME280;18281;51.364;9.566;2023-08-12T09:09:07;100020.03;;;20.16;100.00
31681;BME280;18281;51.364;9.566;2023-08-12T09:11:35;100025.78;;;20.12;100.00
31681;BME280;18281;51.364;9.566;2023-08-12T09:14:02;100036.28;;;20.23;100.00
31681;BME280;18281;51.364;9.566;2023-08-12T09:16:28;100024.31;;;20.27;100.00
31681;BME280;18281;51.364;9.566;2023-08-12T09:18:54;100032.31;;;20.27;100.00
31681;BME280;18281;51.364;9.566;2023-08-12T09:21:20;100030.88;;;20.33;100.00
31681;BME280;18281;51.364;9.566;2023-08-12T09:23:45;100028.63;;;20.38;100.00
31681;BME280;18281;51.364;9.566;2023-08-12T09:26:15;100021.03;;;20.43;100.00
31681;BME280;18281;51.364;9.566;2023-08-12T09:28:44;100012.56;;;20.48;100.00
31681;BME280;18281;51.364;9.566;2023-08-12T09:31:22;100007.47;;;20.54;100.00
31681;BME280;18281;51.364;9.566;2023-08-12T09:33:48;100004.91;;;20.63;100.00
31681;BME280;18281;51.364;9.566;2023-08-12T09:36:13;99989.16;;;20.69;100.00
31681;BME280;18281;51.364;9.566;2023-08-12T09:38:39;99985.84;;;20.75;100.00
31681;BME280;18281;51.364;9.566;2023-08-12T09:41:04;99984.72;;;20.78;100.00
31681;BME280;18281;51.364;9.566;2023-08-12T09:43:30;99989.44;;;20.84;100.00
31681;BME280;18281;51.364;9.566;2023-08-12T09:45:57;99988.97;;;20.89;100.00
31681;BME280;18281;51.364;9.566;2023-08-12T09:48:25;99990.59;;;21.18;100.00
31681;BME280;18281;51.364;9.566;2023-08-12T09:50:51;100002.25;;;21.17;100.00
31681;BME280;18281;51.364;9.566;2023-08-12T09:53:17;100005.28;;;21.22;100.00
31681;BME280;18281;51.364;9.566;2023-08-12T09:55:42;99999.41;;;21.36;100.00
31681;BME280;18281;51.364;9.566;2023-08-12T09:58:08;99986.97;;;21.53;100.00
31681;BME280;18281;51.364;9.566;2023-08-12T10:00:34;99988.44;;;21.48;100.00
31681;BME280;18281;51.364;9.566;2023-08-12T10:03:00;99993.47;;;21.51;100.00
31681;BME280;18281;51.364;9.566;2023-08-12T10:05:32;99996.50;;;21.56;100.00
31681;BME280;18281;51.364;9.566;2023-08-12T10:08:01;99993.66;;;21.57;100.00
31681;BME280;18281;51.364;9.566;2023-08-12T10:10:29;99996.09;;;21.69;100.00
31681;BME280;18281;51.364;9.566;2023-08-12T10:12:55;99987.03;;;21.96;100.00
31681;BME280;18281;51.364;9.566;2023-08-12T10:15:20;99983.56;;;21.96;100.00
31681;BME280;18281;51.364;9.566;2023-08-12T10:17:46;99989.94;;;22.11;100.00
31681;BME280;18281;51.364;9.566;2023-08-12T10:20:13;99984.47;;;22.21;100.00
31681;BME280;18281;51.364;9.566;2023-08-12T10:22:38;99977.81;;;22.33;100.00
31681;BME280;18281;51.364;9.566;2023-08-12T10:25:04;99985.88;;;22.41;100.00
31681;BME280;18281;51.364;9.566;2023-08-12T10:27:31;99983.75;;;22.53;100.00
31681;BME280;18281;51.364;9.566;2023-08-12T10:29:57;99987.06;;;22.55;100.00
31681;BME280;18281;51.364;9.566;2023-08-12T10:32:23;99987.41;;;22.60;100.00
31681;BME280;18281;51.364;9.566;2023-08-12T10:34:53;99981.44;;;22.83;100.00
31681;BME280;18281;51.364;9.566;2023-08-12T10:37:19;99976.06;;;22.91;100.00
31681;BME280;18281;51.364;9.566;2023-08-12T10:39:45;99975.41;;;22.98;100.00
31681;BME280;18281;51.364;9.566;2023-08-12T10:42:10;99978.13;;;23.06;100.00
31681;BME280;18281;51.364;9.566;2023-08-12T10:44:39;99978.63;;;23.01;100.00
31681;BME280;18281;51.364;9.566;2023-08-12T10:47:08;99975.25;;;22.99;100.00
31681;BME280;18281;51.364;9.566;2023-08-12T10:49:39;99979.44;;;23.10;100.00
31681;BME280;18281;51.364;9.566;2023-08-12T10:52:07;99978.28;;;23.04;100.00
31681;BME280;18281;51.364;9.566;2023-08-12T10:54:44;99976.78;;;23.10;100.00
31681;BME280;18281;51.364;9.566;2023-08-12T10:57:12;99971.91;;;22.97;100.00
31681;BME280;18281;51.364;9.566;2023-08-12T10:59:53;99976.13;;;23.08;100.00
31681;BME280;18281;51.364;9.566;2023-08-12T11:02:27;99981.13;;;23.11;100.00
31681;BME280;18281;51.364;9.566;2023-08-12T11:04:53;99974.25;;;23.17;100.00
31681;BME280;18281;51.364;9.566;2023-08-12T11:07:19;99974.44;;;23.15;100.00
31681;BME280;18281;51.364;9.566;2023-08-12T11:09:45;99969.75;;;23.17;100.00
31681;BME280;18281;51.364;9.566;2023-08-12T11:12:11;99967.38;;;23.22;100.00
31681;BME280;18281;51.364;9.566;2023-08-12T11:14:58;99967.38;;;23.22;100.00
31681;BME280;18281;51.364;9.566;2023-08-12T11:17:27;99972.88;;;23.29;100.00
31681;BME280;18281;51.364;9.566;2023-08-12T11:19:52;99969.03;;;23.32;100.00
31681;BME280;18281;51.364;9.566;2023-08-12T11:22:18;99978.41;;;23.27;100.00
31681;BME280;18281;51.364;9.566;2023-08-12T11:24:43;99978.09;;;23.31;100.00
31681;BME280;18281;51.364;9.566;2023-08-12T11:27:09;99977.06;;;23.32;100.00
31681;BME280;18281;51.364;9.566;2023-08-12T11:29:34;99976.94;;;23.33;100.00
31681;BME280;18281;51.364;9.566;2023-08-12T11:31:59;99973.75;;;23.30;100.00
31681;BME280;18281;51.364;9.566;2023-08-12T11:34:25;99967.88;;;23.34;100.00
31681;BME280;18281;51.364;9.566;2023-08-12T11:36:51;99969.03;;;23.32;100.00
31681;BME280;18281;51.364;9.566;2023-08-12T11:39:16;99969.03;;;23.32;100.00
31681;BME280;18281;51.364;9.566;2023-08-12T11:41:42;99983.75;;;23.36;100.00
31681;BME280;18281;51.364;9.566;2023-08-12T11:44:11;99970.72;;;23.33;100.00
31681;BME280;18281;51.364;9.566;2023-08-12T11:46:36;99976.75;;;23.35;100.00
31681;BME280;18281;51.364;9.566;2023-08-12T11:49:02;99977.41;;;23.37;100.00
31681;BME280;18281;51.364;9.566;2023-08-12T11:51:27;99973.03;;;23.36;100.00
31681;BME280;18281;51.364;9.566;2023-08-12T11:53:52;99964.34;;;23.34;100.00
31681;BME280;18281;51.364;9.566;2023-08-12T11:56:17;99962.03;;;23.31;100.00
31681;BME280;18281;51.364;9.566;2023-08-12T11:58:48;99950.47;;;23.22;100.00
31681;BME280;18281;51.364;9.566;2023-08-12T12:01:13;99947.63;;;23.23;100.00
31681;BME280;18281;51.364;9.566;2023-08-12T12:03:38;99944.63;;;23.18;100.00
31681;BME280;18281;51.364;9.566;2023-08-12T12:06:03;99936.75;;;23.17;100.00
31681;BME280;18281;51.364;9.566;2023-08-12T12:08:30;99940.94;;;23.19;100.00
31681;BME280;18281;51.364;9.566;2023-08-12T12:10:56;99944.63;;;23.18;100.00
31681;BME280;18281;51.364;9.566;2023-08-12T12:13:21;99943.63;;;23.19;100.00
31681;BME280;18281;51.364;9.566;2023-08-12T12:15:48;99943.13;;;23.24;100.00
31681;BME280;18281;51.364;9.566;2023-08-12T12:18:13;99937.59;;;23.25;100.00
31681;BME280;18281;51.364;9.566;2023-08-12T12:20:55;99943.28;;;23.22;100.00
31681;BME280;18281;51.364;9.566;2023-08-12T12:23:21;99934.06;;;23.25;100.00
31681;BME280;18281;51.364;9.566;2023-08-12T12:25:46;99932.41;;;23.24;100.00
31681;BME280;18281;51.364;9.566;2023-08-12T12:28:11;99926.72;;;23.27;100.00
31681;BME280;18281;51.364;9.566;2023-08-12T12:30:36;99926.84;;;23.34;100.00
31681;BME280;18281;51.364;9.566;2023-08-12T12:33:02;99921.16;;;23.37;100.00
31681;BME280;18281;51.364;9.566;2023-08-12T12:35:27;99923.00;;;23.36;100.00
31681;BME280;18281;51.364;9.566;2023-08-12T12:37:52;99924.53;;;23.31;100.00
31681;BME280;18281;51.364;9.566;2023-08-12T12:40:18;99929.72;;;23.32;100.00